Time;durP1;ratioP1;P1;durP2;ratioP2;P2;SDS_P1;SDS_P2;PMS_P1;PMS_P2;Temp;Humidity;BMP_temperature;BMP_pressure;BME280_temperature;BME280_humidity;BME280_pressure;Samples;Min_cycle;Max_cycle;Signal;HPM_P1;HPM_P2
2020/12/15 00:01:21;;;;;;;8.13;4.85;;;;;;;9.11;100.00;100602.81;5039978;28;20037;-84
2020/12/15 00:03:47;;;;;;;8.73;4.65;;;;;;;9.06;100.00;100605.66;5053267;28;20033;-84
2020/12/15 00:06:12;;;;;;;7.57;4.75;;;;;;;9.06;100.00;100605.66;5039153;28;20805;-84
2020/12/15 00:08:37;;;;;;;7.78;5.15;;;;;;;9.01;100.00;100603.19;5056670;28;20043;-84
2020/12/15 00:11:02;;;;;;;7.78;4.95;;;;;;;9.01;100.00;100599.72;5051112;28;20028;-84
2020/12/15 00:13:29;;;;;;;5.60;4.57;;;;;;;9.01;100.00;100589.16;5057496;28;20097;-84
2020/12/15 00:15:54;;;;;;;7.95;5.05;;;;;;;8.98;100.00;100589.28;5053030;28;20036;-85
2020/12/15 00:18:19;;;;;;;7.80;4.57;;;;;;;8.98;100.00;100590.13;5056476;28;20029;-84
2020/12/15 00:20:44;;;;;;;6.85;5.13;;;;;;;9.00;100.00;100587.47;5052380;28;20251;-84
2020/12/15 00:23:10;;;;;;;7.30;4.70;;;;;;;8.96;100.00;100580.59;5055915;28;20036;-84
2020/12/15 00:25:35;;;;;;;9.38;4.82;;;;;;;8.95;100.00;100573.63;5034408;28;20029;-84
2020/12/15 00:28:00;;;;;;;8.20;5.03;;;;;;;8.94;100.00;100572.75;5059935;28;20032;-84
2020/12/15 00:30:26;;;;;;;7.00;5.05;;;;;;;8.92;100.00;100577.22;5061763;28;20036;-84
2020/12/15 00:32:52;;;;;;;6.75;5.10;;;;;;;8.88;100.00;100566.88;5060469;28;20021;-85
2020/12/15 00:35:17;;;;;;;11.20;5.13;;;;;;;8.88;100.00;100564.22;5026904;28;20030;-84
2020/12/15 00:37:43;;;;;;;13.57;4.90;;;;;;;8.89;100.00;100571.25;5040902;28;20025;-84
2020/12/15 00:40:08;;;;;;;7.38;4.57;;;;;;;8.85;100.00;100569.66;5040310;28;20401;-85
2020/12/15 00:42:33;;;;;;;9.30;4.85;;;;;;;8.88;100.00;100567.72;5043217;28;20051;-83
2020/12/15 00:44:59;;;;;;;7.18;4.90;;;;;;;8.89;100.00;100564.19;5062358;28;20055;-84
2020/12/15 00:47:24;;;;;;;6.25;4.75;;;;;;;8.86;100.00;100574.00;5056487;28;20028;-85
2020/12/15 00:49:50;;;;;;;8.65;4.85;;;;;;;8.87;100.00;100573.91;5061719;28;20101;-84
2020/12/15 00:52:15;;;;;;;7.90;4.82;;;;;;;8.86;100.00;100574.84;5040833;28;20618;-84
2020/12/15 00:54:40;;;;;;;6.90;4.78;;;;;;;8.83;100.00;100561.78;5037492;28;20025;-84
2020/12/15 00:57:05;;;;;;;12.25;5.85;;;;;;;8.89;100.00;100564.19;5059011;28;20036;-84
2020/12/15 00:59:31;;;;;;;10.43;5.32;;;;;;;8.83;100.00;100564.41;5054244;28;20452;-83
2020/12/15 01:01:58;;;;;;;7.20;4.78;;;;;;;8.84;100.00;100557.41;5052373;28;20032;-84
2020/12/15 01:04:23;;;;;;;7.22;5.30;;;;;;;8.86;100.00;100566.09;5036851;28;20037;-83
2020/12/15 01:06:49;;;;;;;7.57;4.85;;;;;;;8.80;100.00;100562.78;5064200;28;20024;-84
2020/12/15 01:09:14;;;;;;;9.75;4.85;;;;;;;8.87;100.00;100555.47;5058526;28;20045;-83
2020/12/15 01:11:40;;;;;;;7.22;4.70;;;;;;;8.84;100.00;100560.88;5066697;28;20090;-83
2020/12/15 01:14:05;;;;;;;7.72;4.45;;;;;;;8.87;100.00;100555.47;5062812;28;20673;-83
2020/12/15 01:16:30;;;;;;;7.13;4.90;;;;;;;8.87;100.00;100549.34;5037269;28;20055;-83
2020/12/15 01:18:56;;;;;;;8.40;5.10;;;;;;;8.80;100.00;100552.25;5055514;28;20017;-83
2020/12/15 01:21:29;;;;;;;7.85;5.22;;;;;;;8.81;100.00;100553.09;5056002;28;20025;-83
2020/12/15 01:23:55;;;;;;;6.97;4.72;;;;;;;8.76;100.00;100558.56;5059039;28;20028;-83
2020/12/15 01:26:21;;;;;;;6.13;4.80;;;;;;;8.78;100.00;100569.03;5039887;28;20103;-84
2020/12/15 01:28:47;;;;;;;9.38;5.43;;;;;;;8.81;100.00;100558.38;5058063;28;20025;-83
2020/12/15 01:31:12;;;;;;;9.50;4.80;;;;;;;8.81;100.00;100566.28;5058676;28;20024;-84
2020/12/15 01:33:38;;;;;;;10.60;4.82;;;;;;;8.82;100.00;100570.63;5056170;28;20412;-83
2020/12/15 01:36:04;;;;;;;7.93;4.78;;;;;;;8.81;100.00;100572.41;5055249;28;20060;-84
2020/12/15 01:38:29;;;;;;;10.35;4.65;;;;;;;8.76;100.00;100569.09;5048935;28;20021;-84
2020/12/15 01:40:54;;;;;;;7.35;4.47;;;;;;;8.81;100.00;100568.91;5038195;28;20024;-83
2020/12/15 01:43:20;;;;;;;7.43;5.00;;;;;;;8.85;100.00;100583.69;5056345;28;20024;-84
2020/12/15 01:45:45;;;;;;;9.43;5.47;;;;;;;8.85;100.00;100588.09;5059992;28;20041;-83
2020/12/15 01:48:11;;;;;;;8.13;5.22;;;;;;;8.85;100.00;100594.22;5055242;28;20029;-83
2020/12/15 01:50:37;;;;;;;8.80;5.00;;;;;;;8.88;100.00;100586.16;5055358;28;20031;-84
2020/12/15 01:53:09;;;;;;;6.85;4.55;;;;;;;8.85;100.00;100588.94;5055415;28;20024;-84
2020/12/15 01:55:37;;;;;;;6.68;4.85;;;;;;;8.85;100.00;100585.47;5074213;28;20021;-84
2020/12/15 01:58:03;;;;;;;8.93;4.43;;;;;;;8.83;100.00;100580.22;5040729;28;20032;-83
2020/12/15 02:00:29;;;;;;;7.45;4.47;;;;;;;8.85;100.00;100582.81;5054877;28;20032;-84
2020/12/15 02:02:54;;;;;;;7.43;4.97;;;;;;;8.84;100.00;100579.34;5054705;28;20485;-84
2020/12/15 02:05:19;;;;;;;7.15;4.43;;;;;;;8.81;100.00;100582.09;5052192;28;20032;-84
2020/12/15 02:07:46;;;;;;;8.10;4.88;;;;;;;8.81;100.00;100574.19;5036747;28;20087;-84
2020/12/15 02:10:11;;;;;;;7.68;4.50;;;;;;;8.84;100.00;100571.44;5069760;28;20032;-84
2020/12/15 02:12:37;;;;;;;7.57;4.97;;;;;;;8.85;100.00;100577.56;5057421;28;20032;-84
2020/12/15 02:15:04;;;;;;;9.38;4.80;;;;;;;8.84;100.00;100571.44;5071167;28;20465;-84
2020/12/15 02:17:29;;;;;;;9.73;5.32;;;;;;;8.82;100.00;100583.78;5057618;28;20083;-84
2020/12/15 02:20:09;;;;;;;7.30;4.28;;;;;;;8.85;100.00;100580.19;5054462;28;20033;-84
2020/12/15 02:22:35;;;;;;;6.85;4.68;;;;;;;8.86;100.00;100588.03;5061362;28;20389;-85
2020/12/15 02:25:01;;;;;;;7.60;4.80;;;;;;;8.79;100.00;100584.78;5054518;28;20059;-83
2020/12/15 02:27:27;;;;;;;7.05;4.50;;;;;;;8.85;100.00;100583.69;5057207;28;20033;-80
2020/12/15 02:29:52;;;;;;;6.70;4.63;;;;;;;8.88;99.92;100587.94;5043871;28;20024;-80
2020/12/15 02:32:17;;;;;;;7.55;4.85;;;;;;;8.89;100.00;100577.38;5050036;28;20055;-80
2020/12/15 02:34:42;;;;;;;6.13;4.93;;;;;;;8.90;99.74;100584.34;5059340;28;20035;-80
2020/12/15 02:37:09;;;;;;;8.90;4.90;;;;;;;8.95;99.65;100587.66;5054493;28;20025;-80
2020/12/15 02:39:34;;;;;;;9.23;4.90;;;;;;;8.92;100.00;100594.81;5053701;28;20104;-80
2020/12/15 02:42:00;;;;;;;8.90;5.15;;;;;;;8.91;100.00;100599.22;5057206;28;20036;-80
2020/12/15 02:44:25;;;;;;;10.25;5.22;;;;;;;8.98;99.73;100605.09;5055485;28;20111;-80
2020/12/15 02:46:50;;;;;;;7.82;4.88;;;;;;;9.04;99.42;100600.44;5053603;28;20048;-79
2020/12/15 02:49:16;;;;;;;10.13;5.40;;;;;;;8.98;99.70;100595.41;5056863;28;20485;-80
2020/12/15 02:51:41;;;;;;;8.65;5.03;;;;;;;9.02;99.59;100604.91;5039850;28;20029;-81
2020/12/15 02:54:06;;;;;;;9.98;5.75;;;;;;;9.10;99.28;100614.28;5057208;28;20071;-80
2020/12/15 02:56:31;;;;;;;8.15;6.07;;;;;;;9.07;99.39;100620.53;5040706;28;20025;-80
2020/12/15 02:58:57;;;;;;;8.65;6.28;;;;;;;9.15;99.29;100622.88;5053502;28;20032;-80
2020/12/15 03:04:45;;;;;;;8.85;5.70;;;;;;;9.15;99.13;100626.34;5047973;28;20062;-81
2020/12/15 03:07:11;;;;;;;8.38;6.00;;;;;;;9.19;98.79;100627.94;5034899;28;20024;-80
2020/12/15 03:09:36;;;;;;;13.57;6.63;;;;;;;9.18;98.98;100631.47;5042648;28;20480;-81
2020/12/15 03:12:01;;;;;;;9.77;6.70;;;;;;;9.21;99.14;100641.06;5055233;28;20139;-80
2020/12/15 03:14:27;;;;;;;13.80;7.03;;;;;;;9.18;99.17;100641.19;5057321;28;20021;-80
2020/12/15 03:16:52;;;;;;;9.90;6.93;;;;;;;9.16;99.08;100645.66;5038725;28;20035;-80
2020/12/15 03:19:17;;;;;;;11.25;5.97;;;;;;;9.16;99.34;100645.66;5047944;28;20516;-80
2020/12/15 03:21:42;;;;;;;10.02;6.25;;;;;;;9.14;99.34;100637.84;5040222;28;20110;-80
2020/12/15 03:24:08;;;;;;;10.95;6.75;;;;;;;9.21;99.20;100638.44;5055011;28;20024;-81
2020/12/15 03:26:33;;;;;;;10.40;6.35;;;;;;;9.16;99.12;100627.22;5052133;28;20154;-80
2020/12/15 03:28:58;;;;;;;10.70;6.22;;;;;;;9.23;98.89;100628.66;5042727;28;20055;-80
2020/12/15 03:31:24;;;;;;;11.15;6.55;;;;;;;9.14;99.30;100621.16;5051647;28;20382;-80
2020/12/15 03:33:50;;;;;;;9.15;6.45;;;;;;;9.16;99.49;100632.50;5049870;28;20025;-80
2020/12/15 03:36:16;;;;;;;9.05;6.38;;;;;;;9.18;99.19;100625.34;5051432;28;20062;-80
2020/12/15 03:38:42;;;;;;;12.05;6.18;;;;;;;9.17;99.38;100629.78;5053437;28;20020;-80
2020/12/15 03:41:08;;;;;;;9.85;6.30;;;;;;;9.17;98.92;100621.88;5056920;28;20086;-80
2020/12/15 03:43:33;;;;;;;8.23;5.88;;;;;;;9.16;99.25;100620.16;5056588;28;20033;-79
2020/12/15 03:45:58;;;;;;;10.00;6.22;;;;;;;9.12;99.47;100612.44;5057657;28;20583;-80
2020/12/15 03:48:23;;;;;;;10.68;6.30;;;;;;;9.08;99.60;100620.47;5050753;28;20489;-80
2020/12/15 03:50:49;;;;;;;11.25;7.53;;;;;;;9.06;99.85;100627.59;5038123;28;20025;-80
2020/12/15 03:53:14;;;;;;;8.90;5.95;;;;;;;9.15;99.54;100625.50;5039526;28;20451;-80
2020/12/15 03:55:39;;;;;;;8.68;6.15;;;;;;;9.11;99.63;100621.28;5059330;28;20034;-80
2020/12/15 03:58:04;;;;;;;8.40;6.20;;;;;;;9.10;99.66;100620.41;5055035;28;20048;-80
2020/12/15 04:00:30;;;;;;;7.97;6.78;;;;;;;8.98;100.00;100615.63;5050611;28;20025;-80
2020/12/15 04:02:55;;;;;;;13.45;7.70;;;;;;;9.06;99.94;100618.81;5054772;28;20040;-80
2020/12/15 04:05:20;;;;;;;7.32;5.90;;;;;;;9.02;99.82;100611.97;5056142;28;20028;-80
2020/12/15 04:07:46;;;;;;;10.40;5.90;;;;;;;9.00;99.96;100622.59;5058653;28;20064;-80
2020/12/15 04:10:12;;;;;;;10.40;5.88;;;;;;;8.98;100.00;100627.03;5062759;28;20035;-80
2020/12/15 04:12:37;;;;;;;8.63;6.75;;;;;;;8.99;100.00;100627.94;5055658;28;20081;-80
2020/12/15 04:15:05;;;;;;;12.20;5.80;;;;;;;8.96;100.00;100622.78;5056506;28;20025;-80
2020/12/15 04:17:30;;;;;;;7.63;5.90;;;;;;;8.98;100.00;100616.50;5058743;28;20036;-80
2020/12/15 04:19:55;;;;;;;9.65;4.90;;;;;;;8.94;100.00;100614.94;5045843;28;20442;-80
2020/12/15 04:22:21;;;;;;;9.15;5.30;;;;;;;8.90;100.00;100621.25;5050019;28;20098;-80
2020/12/15 04:24:46;;;;;;;9.50;5.78;;;;;;;8.80;100.00;100620.75;5057853;28;20122;-80
2020/12/15 04:27:11;;;;;;;8.15;5.57;;;;;;;8.88;100.00;100633.59;5059060;28;20215;-80
2020/12/15 04:29:37;;;;;;;10.05;5.50;;;;;;;8.87;100.00;100631.03;5056217;28;20039;-80
2020/12/15 04:32:02;;;;;;;12.75;5.22;;;;;;;8.82;100.00;100637.34;5041368;28;20393;-80
2020/12/15 04:34:27;;;;;;;10.57;5.93;;;;;;;8.85;100.00;100640.81;5075313;28;20493;-80
2020/12/15 04:36:52;;;;;;;11.65;6.03;;;;;;;8.83;100.00;100638.22;5056441;28;20033;-79
2020/12/15 04:39:18;;;;;;;13.15;5.50;;;;;;;8.80;100.00;100635.72;5065915;28;20017;-79
2020/12/15 04:41:43;;;;;;;10.10;5.63;;;;;;;8.78;100.00;100643.66;5056206;28;20032;-79
2020/12/15 04:44:09;;;;;;;8.35;5.70;;;;;;;8.72;100.00;100641.28;5056484;28;20024;-79
2020/12/15 04:46:42;;;;;;;9.45;5.60;;;;;;;8.73;100.00;100640.34;5060641;28;20428;-80
2020/12/15 04:49:08;;;;;;;8.35;6.70;;;;;;;8.76;100.00;100637.59;5071324;28;20053;-79
2020/12/15 04:52:03;;;;;;;6.22;5.53;;;;;;;8.69;100.00;100630.88;5054730;28;20107;-79
2020/12/15 04:54:31;;;;;;;14.40;5.68;;;;;;;8.74;100.00;100633.34;5055259;28;20024;-79
2020/12/15 04:57:01;;;;;;;9.23;5.40;;;;;;;8.71;100.00;100620.28;5041874;28;20036;-80
2020/12/15 04:59:32;;;;;;;9.02;5.70;;;;;;;8.64;100.00;100630.22;5060061;28;20559;-79
2020/12/15 05:01:59;;;;;;;7.63;5.38;;;;;;;8.66;100.00;100631.00;5057713;28;20032;-79
2020/12/15 05:04:25;;;;;;;7.55;5.65;;;;;;;8.59;100.00;100629.53;5037522;28;20393;-80
2020/12/15 05:06:54;;;;;;;7.60;5.13;;;;;;;8.62;100.00;100636.44;5041146;28;20028;-80
2020/12/15 05:09:35;;;;;;;11.25;5.80;;;;;;;8.63;100.00;100635.50;5060866;28;20036;-79
2020/12/15 05:12:01;;;;;;;9.65;5.60;;;;;;;8.61;100.00;100632.94;5058703;28;20082;-79
2020/12/15 05:14:27;;;;;;;8.77;5.30;;;;;;;8.65;100.00;100642.44;5058812;28;20035;-79
2020/12/15 05:16:53;;;;;;;7.82;5.20;;;;;;;8.65;100.00;100641.59;5061808;28;20100;-80
2020/12/15 05:19:19;;;;;;;9.63;5.28;;;;;;;8.65;100.00;100642.44;5047660;28;20112;-79
2020/12/15 05:21:59;;;;;;;9.13;5.40;;;;;;;8.60;100.00;100636.50;5058968;28;20082;-80
2020/12/15 05:24:28;;;;;;;8.43;5.45;;;;;;;8.57;100.00;100639.25;5038845;28;20473;-79
2020/12/15 05:26:56;;;;;;;6.88;5.32;;;;;;;8.64;100.00;100642.53;5056405;28;20026;-79
2020/12/15 05:29:21;;;;;;;15.38;6.22;;;;;;;8.69;100.00;100637.94;5058280;28;20021;-80
2020/12/15 05:31:47;;;;;;;7.80;4.75;;;;;;;8.66;100.00;100644.16;5042552;28;20098;-80
2020/12/15 05:34:20;;;;;;;10.10;5.57;;;;;;;8.68;100.00;100650.22;5057901;28;20115;-79
2020/12/15 05:36:56;;;;;;;7.15;5.80;;;;;;;8.72;100.00;100643.06;5057443;28;20024;-79
2020/12/15 05:39:23;;;;;;;9.90;5.53;;;;;;;8.68;100.00;100644.09;5055304;28;20107;-79
2020/12/15 05:42:07;;;;;;;7.05;5.43;;;;;;;8.61;100.00;100654.03;5052333;28;20544;-80
2020/12/15 05:44:35;;;;;;;7.95;5.32;;;;;;;8.76;100.00;100652.56;5057449;28;20033;-80
2020/12/15 05:47:08;;;;;;;11.68;5.82;;;;;;;8.74;100.00;100642.09;5052167;28;20135;-80
2020/12/15 05:49:40;;;;;;;7.43;5.50;;;;;;;8.73;100.00;100640.34;5068088;28;20036;-78
2020/12/15 05:52:07;;;;;;;7.03;5.15;;;;;;;8.77;100.00;100643.72;5055843;28;20056;-79
2020/12/15 05:54:32;;;;;;;7.85;5.80;;;;;;;8.75;100.00;100637.69;5044373;28;20033;-80
2020/12/15 05:57:01;;;;;;;9.68;5.55;;;;;;;8.78;100.00;100630.47;5061528;28;20035;-78
2020/12/15 05:59:26;;;;;;;7.05;5.45;;;;;;;8.78;100.00;100645.44;5056840;28;20032;-78
2020/12/15 06:01:54;;;;;;;10.30;5.35;;;;;;;8.77;100.00;100643.72;5061087;28;20086;-80
2020/12/15 06:04:21;;;;;;;7.65;5.35;;;;;;;8.79;100.00;100644.53;5037066;28;20056;-78
2020/12/15 06:06:47;;;;;;;8.70;5.97;;;;;;;8.78;100.00;100646.28;5065238;28;20104;-79
2020/12/15 06:09:14;;;;;;;12.45;5.18;;;;;;;8.82;100.00;100652.31;5050774;28;20043;-79
2020/12/15 06:11:41;;;;;;;10.30;6.30;;;;;;;8.84;100.00;100658.41;5062377;28;20079;-79
2020/12/15 06:14:09;;;;;;;10.55;5.78;;;;;;;8.83;100.00;100661.94;5058826;28;20067;-79
2020/12/15 06:16:34;;;;;;;8.68;5.78;;;;;;;8.85;100.00;100664.53;5061256;28;20017;-79
2020/12/15 06:19:01;;;;;;;10.15;5.93;;;;;;;8.82;100.00;100668.13;5059160;28;20029;-79
2020/12/15 06:21:28;;;;;;;10.77;6.57;;;;;;;8.86;100.00;100668.88;5058960;28;20058;-79
2020/12/15 06:24:02;;;;;;;7.45;5.70;;;;;;;8.84;100.00;100662.81;5049972;28;20061;-79
2020/12/15 06:26:29;;;;;;;11.73;5.80;;;;;;;8.84;99.93;100668.09;5040264;28;20025;-79
2020/12/15 06:28:58;;;;;;;9.90;6.72;;;;;;;8.84;99.99;100671.56;5059463;28;20029;-79
2020/12/15 06:31:23;;;;;;;13.95;5.95;;;;;;;8.80;100.00;100667.34;5057780;28;20020;-79
2020/12/15 06:33:54;;;;;;;13.15;6.45;;;;;;;8.77;100.00;100670.09;5052060;28;20021;-79
2020/12/15 06:36:25;;;;;;;7.35;5.82;;;;;;;8.84;99.88;100668.94;5065099;28;20483;-79
2020/12/15 06:38:51;;;;;;;13.95;5.85;;;;;;;8.79;100.00;100671.75;5061786;28;20085;-79
2020/12/15 06:41:21;;;;;;;9.63;6.25;;;;;;;8.82;100.00;100670.75;5049354;28;20025;-79
2020/12/15 06:43:47;;;;;;;10.15;5.80;;;;;;;8.84;99.97;100668.94;5055733;28;20024;-78
2020/12/15 06:46:12;;;;;;;9.63;5.50;;;;;;;8.87;100.00;100668.78;5043086;28;20405;-79
2020/12/15 06:48:39;;;;;;;14.13;6.20;;;;;;;8.82;100.00;100661.06;5034822;28;20560;-79
2020/12/15 06:51:04;;;;;;;11.93;6.57;;;;;;;8.79;100.00;100666.47;5047048;28;20075;-79
2020/12/15 06:53:30;;;;;;;9.02;5.97;;;;;;;8.86;100.00;100661.81;5033408;28;20029;-79
2020/12/15 06:56:01;;;;;;;11.43;6.00;;;;;;;8.79;100.00;100673.53;5037510;28;20412;-79
2020/12/15 06:58:27;;;;;;;8.07;5.47;;;;;;;8.83;100.00;100677.75;5035236;28;20602;-79
2020/12/15 07:00:53;;;;;;;9.32;6.22;;;;;;;8.80;100.00;100681.38;5044700;28;20025;-79
2020/12/15 07:03:34;;;;;;;10.20;5.90;;;;;;;8.82;100.00;100679.53;5011161;28;20032;-80
2020/12/15 07:06:09;;;;;;;10.57;6.10;;;;;;;8.84;99.98;100684.75;5047182;28;20610;-79
2020/12/15 07:08:34;;;;;;;11.07;5.93;;;;;;;8.79;100.00;100684.94;5056903;28;20075;-79
2020/12/15 07:11:00;;;;;;;6.82;5.40;;;;;;;8.81;100.00;100683.06;5045951;28;20560;-79
2020/12/15 07:13:25;;;;;;;8.45;5.68;;;;;;;8.84;100.00;100686.53;5051842;28;20089;-79
2020/12/15 07:15:50;;;;;;;11.07;6.30;;;;;;;8.72;100.00;100688.72;5050505;28;20474;-80
2020/12/15 07:18:16;;;;;;;8.02;5.93;;;;;;;8.76;100.00;100685.03;5045275;28;20033;-80
2020/12/15 07:20:42;;;;;;;10.18;6.05;;;;;;;8.76;100.00;100695.59;5049954;28;20028;-80
2020/12/15 07:23:07;;;;;;;10.45;6.32;;;;;;;8.78;100.00;100698.16;5050183;28;20389;-80
2020/12/15 07:25:32;;;;;;;11.43;6.45;;;;;;;8.80;100.00;100691.06;5048922;28;20036;-79
2020/12/15 07:27:58;;;;;;;10.50;7.15;;;;;;;8.78;100.00;100701.63;5034610;28;20036;-79
2020/12/15 07:30:23;;;;;;;9.38;6.00;;;;;;;8.77;100.00;100706.97;5046528;28;20056;-79
2020/12/15 07:32:49;;;;;;;15.32;6.93;;;;;;;8.77;100.00;100702.56;5050559;28;20564;-80
2020/12/15 07:35:20;;;;;;;9.95;6.22;;;;;;;8.79;100.00;100698.09;5049040;28;20074;-79
2020/12/15 07:37:48;;;;;;;8.68;6.07;;;;;;;8.82;100.00;100713.78;5035711;28;20021;-80
2020/12/15 07:40:16;;;;;;;15.05;7.78;;;;;;;8.76;100.00;100724.56;5050729;28;20040;-80
2020/12/15 07:42:54;;;;;;;11.55;6.78;;;;;;;8.79;100.00;100728.88;5046103;28;20482;-80
2020/12/15 07:45:19;;;;;;;14.88;6.57;;;;;;;8.80;100.00;100736.72;5031759;28;20021;-79
2020/12/15 07:47:44;;;;;;;10.68;6.30;;;;;;;8.79;100.00;100744.69;5049179;28;20029;-80
2020/12/15 07:50:10;;;;;;;13.63;6.55;;;;;;;8.80;100.00;100751.66;5038196;28;20496;-80
2020/12/15 07:52:38;;;;;;;11.82;6.32;;;;;;;8.84;100.00;100753.28;5053170;28;20041;-79
2020/12/15 07:55:09;;;;;;;10.65;6.35;;;;;;;8.85;100.00;100736.53;5056609;28;20017;-80
2020/12/15 07:57:37;;;;;;;10.70;6.38;;;;;;;8.85;100.00;100747.06;5036306;28;20036;-79
2020/12/15 08:00:07;;;;;;;12.13;7.28;;;;;;;8.82;100.00;100758.59;5049146;28;20131;-79
2020/12/15 08:02:32;;;;;;;9.23;6.25;;;;;;;8.90;100.00;100752.19;5036922;28;20025;-78
2020/12/15 08:05:11;;;;;;;12.63;6.95;;;;;;;8.96;99.92;100763.31;5051496;28;20151;-79
2020/12/15 08:07:42;;;;;;;11.50;6.28;;;;;;;8.93;99.83;100766.06;5050112;28;20073;-79
2020/12/15 08:10:07;;;;;;;12.85;7.20;;;;;;;8.92;100.00;100766.13;5050915;28;20032;-79
2020/12/15 08:12:34;;;;;;;13.55;6.88;;;;;;;8.90;100.00;100755.66;5053035;28;20029;-79
2020/12/15 08:15:00;;;;;;;12.48;7.50;;;;;;;8.86;100.00;100758.47;5052694;28;20074;-79
2020/12/15 08:17:29;;;;;;;14.98;7.28;;;;;;;8.98;99.93;100761.47;5053635;28;20025;-78
2020/12/15 08:20:04;;;;;;;12.52;7.80;;;;;;;8.94;99.94;100766.97;5051328;28;20029;-78
2020/12/15 08:22:30;;;;;;;10.90;8.47;;;;;;;9.00;100.00;100775.47;5050663;28;20036;-78
2020/12/15 08:24:57;;;;;;;12.40;7.78;;;;;;;9.00;99.58;100777.25;5051001;28;20817;-79
2020/12/15 08:27:24;;;;;;;9.85;6.70;;;;;;;9.04;99.70;100781.50;5031047;28;20024;-84
2020/12/15 08:29:50;;;;;;;12.90;7.95;;;;;;;9.04;99.80;100790.25;5033989;28;20052;-83
2020/12/15 08:32:25;;;;;;;18.23;8.32;;;;;;;9.05;99.72;100783.22;5049667;28;20493;-83
2020/12/15 08:34:58;;;;;;;13.35;8.30;;;;;;;9.08;99.59;100799.75;5027959;28;20025;-83
2020/12/15 08:37:25;;;;;;;11.98;7.57;;;;;;;9.13;99.45;100807.47;5048265;28;20131;-83
2020/12/15 08:39:51;;;;;;;13.05;8.05;;;;;;;9.15;99.55;100808.28;5050807;28;20029;-83
2020/12/15 08:42:17;;;;;;;11.10;7.68;;;;;;;9.21;98.96;100804.56;5055021;28;20032;-83
2020/12/15 08:44:42;;;;;;;14.18;8.10;;;;;;;9.19;98.84;100799.34;5057468;28;20032;-84
2020/12/15 08:47:07;;;;;;;17.73;9.52;;;;;;;9.21;99.10;100802.78;5056243;28;20047;-83
2020/12/15 08:49:33;;;;;;;14.10;8.15;;;;;;;9.24;98.89;100807.94;5058703;28;20025;-83
2020/12/15 08:51:58;;;;;;;18.92;8.48;;;;;;;9.28;98.82;100816.56;5054826;28;20021;-84
2020/12/15 08:54:24;;;;;;;16.92;8.77;;;;;;;9.29;98.64;100816.53;5058184;28;20023;-85
2020/12/15 08:56:49;;;;;;;12.57;9.65;;;;;;;9.31;98.27;100817.31;5054978;28;20040;-83
2020/12/15 08:59:18;;;;;;;16.83;9.35;;;;;;;9.28;98.87;100825.34;5061245;28;20029;-84
2020/12/15 09:01:44;;;;;;;15.95;9.45;;;;;;;9.34;98.88;100829.53;5050363;28;20162;-84
2020/12/15 09:04:11;;;;;;;16.80;9.07;;;;;;;9.41;98.46;100830.16;5050935;28;20025;-83
2020/12/15 09:06:38;;;;;;;14.23;8.88;;;;;;;9.30;98.77;100828.78;5054855;28;20024;-84
2020/12/15 09:09:05;;;;;;;15.32;9.10;;;;;;;9.45;98.40;100826.47;5039709;28;20045;-83
2020/12/15 09:11:31;;;;;;;12.30;8.52;;;;;;;9.43;98.39;100831.78;5058171;28;20028;-83
2020/12/15 09:13:58;;;;;;;18.00;9.20;;;;;;;9.41;98.03;100817.81;5019751;28;20025;-84
2020/12/15 09:16:25;;;;;;;15.32;8.73;;;;;;;9.43;98.43;100833.56;5052813;28;20028;-85
2020/12/15 09:18:51;;;;;;;13.38;8.88;;;;;;;9.49;98.14;100839.47;5024945;28;20055;-85
2020/12/15 09:21:18;;;;;;;14.10;8.65;;;;;;;9.47;98.01;100830.75;5039757;28;20075;-84
2020/12/15 09:23:48;;;;;;;12.18;8.55;;;;;;;9.55;97.68;100838.38;5039120;28;20028;-84
2020/12/15 09:26:13;;;;;;;14.88;9.68;;;;;;;9.55;97.70;100841.88;5037324;28;20028;-84
2020/12/15 09:28:39;;;;;;;16.58;8.77;;;;;;;9.52;97.68;100838.50;5051433;28;20040;-84
2020/12/15 09:31:04;;;;;;;12.63;9.20;;;;;;;9.55;97.61;100846.28;5053310;28;20489;-84
2020/12/15 09:33:29;;;;;;;16.17;10.20;;;;;;;9.51;97.68;100845.53;5053613;28;20053;-85
2020/12/15 09:35:54;;;;;;;15.48;8.88;;;;;;;9.52;97.78;100867.50;5039407;28;20040;-84
2020/12/15 09:38:21;;;;;;;14.82;8.85;;;;;;;9.52;97.69;100864.88;5056536;28;20048;-84
2020/12/15 09:40:47;;;;;;;16.95;9.75;;;;;;;9.49;97.89;100865.88;5036604;28;20115;-84
2020/12/15 09:43:12;;;;;;;17.20;9.90;;;;;;;9.51;97.77;100868.44;5049177;28;20037;-84
2020/12/15 09:45:37;;;;;;;15.77;9.43;;;;;;;9.50;98.04;100872.84;5053309;28;20052;-84
2020/12/15 09:48:02;;;;;;;11.85;9.00;;;;;;;9.55;97.76;100880.59;5056352;28;20485;-84
2020/12/15 09:50:30;;;;;;;14.65;9.30;;;;;;;9.52;97.65;100875.44;5050107;28;20028;-84
2020/12/15 09:52:56;;;;;;;15.38;9.27;;;;;;;9.47;98.13;100888.78;5053674;28;20057;-83
2020/12/15 09:55:22;;;;;;;17.98;11.10;;;;;;;9.47;98.21;100882.66;5057005;28;20028;-83
2020/12/15 09:57:47;;;;;;;17.65;10.55;;;;;;;9.50;98.27;100885.19;5055819;28;20528;-84
2020/12/15 10:00:12;;;;;;;23.15;10.48;;;;;;;9.50;98.30;100886.03;5048732;28;20024;-84
2020/12/15 10:02:37;;;;;;;15.65;9.88;;;;;;;9.51;98.37;100874.56;5055490;28;20086;-84
2020/12/15 10:05:03;;;;;;;17.75;9.25;;;;;;;9.58;97.62;100878.66;5059458;28;20044;-84
2020/12/15 10:07:29;;;;;;;12.70;9.25;;;;;;;9.63;97.64;100882.91;5051712;28;20044;-84
2020/12/15 10:09:57;;;;;;;17.65;9.70;;;;;;;9.62;97.69;100883.84;5056860;28;20107;-83
2020/12/15 10:12:23;;;;;;;13.32;9.00;;;;;;;9.65;97.69;100883.72;5021954;28;20074;-84
2020/12/15 10:14:48;;;;;;;13.75;9.15;;;;;;;9.70;97.32;100874.69;5052978;28;20536;-83
2020/12/15 10:17:13;;;;;;;17.95;10.07;;;;;;;9.69;97.49;100872.09;5058554;28;20500;-83
2020/12/15 10:19:39;;;;;;;16.88;10.32;;;;;;;9.74;97.51;100885.97;5051211;28;20032;-83
2020/12/15 10:22:04;;;;;;;15.77;9.65;;;;;;;9.65;97.95;100883.72;5057271;28;20397;-83
2020/12/15 10:24:29;;;;;;;16.27;10.10;;;;;;;9.72;97.80;100882.53;5037178;28;20032;-83
2020/12/15 10:26:54;;;;;;;14.80;8.82;;;;;;;9.70;98.23;100881.75;5056920;28;20393;-83
2020/12/15 10:29:20;;;;;;;18.55;11.05;;;;;;;9.67;98.51;100871.31;5056681;28;20031;-82
2020/12/15 10:31:47;;;;;;;14.55;10.35;;;;;;;9.69;97.85;100877.38;5053035;28;20028;-82
2020/12/15 10:34:13;;;;;;;15.60;10.50;;;;;;;9.66;98.52;100885.44;5039445;28;20119;-82
2020/12/15 10:36:38;;;;;;;16.77;10.45;;;;;;;9.65;98.59;100873.16;5055038;28;20099;-82
2020/12/15 10:39:03;;;;;;;14.85;9.82;;;;;;;9.62;98.45;100882.06;5056193;28;20029;-83
2020/12/15 10:41:29;;;;;;;19.65;9.90;;;;;;;9.69;98.38;100890.56;5034154;28;20053;-83
2020/12/15 10:43:54;;;;;;;14.90;10.30;;;;;;;9.66;98.77;100894.22;5051581;28;20025;-82
2020/12/15 10:46:26;;;;;;;18.45;11.25;;;;;;;9.62;98.71;100891.75;5048019;28;20099;-82
2020/12/15 10:48:52;;;;;;;18.38;11.10;;;;;;;9.58;98.62;100888.38;5057766;28;20028;-82
2020/12/15 10:51:18;;;;;;;16.85;10.75;;;;;;;9.60;98.90;100887.41;5056775;28;20724;-82
2020/12/15 10:53:43;;;;;;;16.42;11.05;;;;;;;9.60;99.20;100887.41;5053903;28;20260;-80
2020/12/15 10:56:12;;;;;;;25.08;13.25;;;;;;;9.59;99.09;100890.97;5051179;28;20021;-81
2020/12/15 10:58:37;;;;;;;20.90;11.50;;;;;;;9.56;98.97;100891.06;5053613;28;20029;-80
2020/12/15 11:01:05;;;;;;;19.40;11.52;;;;;;;9.54;99.34;100892.94;5052685;28;20130;-80
2020/12/15 11:03:31;;;;;;;14.15;11.38;;;;;;;9.55;99.49;100901.69;5050155;28;20424;-80
2020/12/15 11:05:56;;;;;;;22.52;12.05;;;;;;;9.54;99.41;100897.34;5043111;28;20033;-80
2020/12/15 11:08:21;;;;;;;18.05;12.13;;;;;;;9.60;99.78;100892.69;5033371;28;20044;-82
2020/12/15 11:10:48;;;;;;;13.90;11.55;;;;;;;9.66;99.18;100896.84;5041051;28;20075;-83
2020/12/15 11:13:13;;;;;;;21.50;11.07;;;;;;;9.65;99.16;100887.22;5056828;28;20366;-82
2020/12/15 11:15:38;;;;;;;23.77;12.23;;;;;;;9.67;99.16;100903.84;5051312;28;20116;-83
2020/12/15 11:18:06;;;;;;;17.48;12.40;;;;;;;9.58;99.78;100909.47;5049930;28;20047;-81
2020/12/15 11:20:33;;;;;;;23.20;12.45;;;;;;;9.61;99.89;100906.72;5056298;28;20045;-82
2020/12/15 11:23:00;;;;;;;19.38;12.13;;;;;;;9.69;99.71;100919.59;5051764;28;20417;-80
2020/12/15 11:25:25;;;;;;;18.25;12.02;;;;;;;9.68;99.54;100913.47;5048195;28;20028;-81